Terminal Aerodrome Forecast
Issued by NWS

Current Version | Previous Version | Graphics & Text | Print | Product List | Glossary On
Versions: 1 2 3 4 5 6 7 8 9 10 11 12 13 14 15 16 17 18 19 20 21 22 23 24 25 26 27 28 29 30
000
FTUS41 KRLX 201100
TAFCKB
TAF
KCKB 201126Z 2012/2112 00000KT 3SM BR VCTS BKN035CB
     FM201300 VRB03KT 6SM -SHRA BR VCTS OVC040CB
      TEMPO 2013/2017 4SM -SHRA BR BKN025
     FM201700 21007KT P6SM VCTS BKN040CB
     FM210000 00000KT P6SM VCTS BKN050CB
     FM210300 00000KT 4SM BR BKN070
     FM210900 00000KT 1 1/2SM BR BKN008=

USA.gov is the U.S. government's official web portal to all federal, state and local government web resources and services.